sensor_id;sensor_type;location;lat;lon;timestamp;temperature;humidity
46562;DHT22;32289;42.688;23.330;2023-05-07T00:00:56;10.30;99.90
46562;DHT22;32289;42.688;23.330;2023-05-07T00:04:37;10.40;99.90
46562;DHT22;32289;42.688;23.330;2023-05-07T00:08:19;10.50;99.90
46562;DHT22;32289;42.688;23.330;2023-05-07T00:12:00;10.50;99.90
46562;DHT22;32289;42.688;23.330;2023-05-07T00:15:41;10.50;99.90
46562;DHT22;32289;42.688;23.330;2023-05-07T00:19:22;10.40;99.90
46562;DHT22;32289;42.688;23.330;2023-05-07T00:23:02;10.20;99.90
46562;DHT22;32289;42.688;23.330;2023-05-07T00:26:43;10.10;99.90
46562;DHT22;32289;42.688;23.330;2023-05-07T00:30:24;10.00;99.90
46562;DHT22;32289;42.688;23.330;2023-05-07T00:34:04;9.90;99.90
46562;DHT22;32289;42.688;23.330;2023-05-07T00:37:46;9.80;99.90
46562;DHT22;32289;42.688;23.330;2023-05-07T00:41:27;9.50;99.90
46562;DHT22;32289;42.688;23.330;2023-05-07T00:45:08;9.80;99.90
46562;DHT22;32289;42.688;23.330;2023-05-07T00:48:53;9.90;99.90
46562;DHT22;32289;42.688;23.330;2023-05-07T00:52:35;9.90;99.90
46562;DHT22;32289;42.688;23.330;2023-05-07T00:56:15;9.80;99.90
46562;DHT22;32289;42.688;23.330;2023-05-07T00:59:57;9.80;99.90
46562;DHT22;32289;42.688;23.330;2023-05-07T01:03:37;9.80;99.90
46562;DHT22;32289;42.688;23.330;2023-05-07T01:07:18;9.70;99.90
46562;DHT22;32289;42.688;23.330;2023-05-07T01:10:59;9.60;99.90
46562;DHT22;32289;42.688;23.330;2023-05-07T01:14:41;9.40;99.90
46562;DHT22;32289;42.688;23.330;2023-05-07T01:18:22;9.20;99.90
46562;DHT22;32289;42.688;23.330;2023-05-07T01:22:08;9.40;99.90
46562;DHT22;32289;42.688;23.330;2023-05-07T01:25:53;9.40;99.90
46562;DHT22;32289;42.688;23.330;2023-05-07T01:29:33;9.40;99.90
46562;DHT22;32289;42.688;23.330;2023-05-07T01:33:15;9.30;99.90
46562;DHT22;32289;42.688;23.330;2023-05-07T01:36:59;9.40;99.90
46562;DHT22;32289;42.688;23.330;2023-05-07T01:40:41;9.20;99.90
46562;DHT22;32289;42.688;23.330;2023-05-07T01:44:22;9.10;99.90
46562;DHT22;32289;42.688;23.330;2023-05-07T01:48:04;9.20;99.90
46562;DHT22;32289;42.688;23.330;2023-05-07T01:51:45;9.10;99.90
46562;DHT22;32289;42.688;23.330;2023-05-07T01:55:25;9.00;99.90
46562;DHT22;32289;42.688;23.330;2023-05-07T01:59:06;8.90;99.90
46562;DHT22;32289;42.688;23.330;2023-05-07T02:02:47;9.00;99.90
46562;DHT22;32289;42.688;23.330;2023-05-07T02:06:27;9.00;99.90
46562;DHT22;32289;42.688;23.330;2023-05-07T02:10:08;8.90;99.90
46562;DHT22;32289;42.688;23.330;2023-05-07T02:13:49;8.90;99.90
46562;DHT22;32289;42.688;23.330;2023-05-07T02:17:30;8.90;99.90
46562;DHT22;32289;42.688;23.330;2023-05-07T02:21:12;8.90;99.90
46562;DHT22;32289;42.688;23.330;2023-05-07T02:24:52;9.00;99.90
46562;DHT22;32289;42.688;23.330;2023-05-07T02:28:33;9.00;99.90
46562;DHT22;32289;42.688;23.330;2023-05-07T02:32:15;9.10;99.90
46562;DHT22;32289;42.688;23.330;2023-05-07T02:35:56;9.10;99.90
46562;DHT22;32289;42.688;23.330;2023-05-07T02:39:37;9.00;99.90
46562;DHT22;32289;42.688;23.330;2023-05-07T02:43:17;9.00;99.90
46562;DHT22;32289;42.688;23.330;2023-05-07T02:46:58;9.00;99.90
46562;DHT22;32289;42.688;23.330;2023-05-07T02:50:39;9.10;99.90
46562;DHT22;32289;42.688;23.330;2023-05-07T02:54:19;9.10;99.90
46562;DHT22;32289;42.688;23.330;2023-05-07T02:58:00;9.20;99.90
46562;DHT22;32289;42.688;23.330;2023-05-07T03:01:41;9.30;99.90
46562;DHT22;32289;42.688;23.330;2023-05-07T03:05:24;9.30;99.90
46562;DHT22;32289;42.688;23.330;2023-05-07T03:09:04;9.40;99.90
46562;DHT22;32289;42.688;23.330;2023-05-07T03:12:45;9.40;99.90
46562;DHT22;32289;42.688;23.330;2023-05-07T03:16:26;9.50;99.90
46562;DHT22;32289;42.688;23.330;2023-05-07T03:20:07;9.60;99.90
46562;DHT22;32289;42.688;23.330;2023-05-07T03:23:49;9.60;99.90
46562;DHT22;32289;42.688;23.330;2023-05-07T03:27:30;9.50;99.90
46562;DHT22;32289;42.688;23.330;2023-05-07T03:31:11;9.50;99.90
46562;DHT22;32289;42.688;23.330;2023-05-07T03:34:51;9.50;99.90
46562;DHT22;32289;42.688;23.330;2023-05-07T03:38:32;9.60;99.90
46562;DHT22;32289;42.688;23.330;2023-05-07T03:42:13;9.80;99.90
46562;DHT22;32289;42.688;23.330;2023-05-07T03:45:54;9.70;99.90
46562;DHT22;32289;42.688;23.330;2023-05-07T03:49:35;9.70;99.90
46562;DHT22;32289;42.688;23.330;2023-05-07T03:53:16;9.70;99.90
46562;DHT22;32289;42.688;23.330;2023-05-07T03:56:56;9.60;99.90
46562;DHT22;32289;42.688;23.330;2023-05-07T04:00:37;9.80;99.90
46562;DHT22;32289;42.688;23.330;2023-05-07T04:04:19;10.00;99.90
46562;DHT22;32289;42.688;23.330;2023-05-07T04:08:00;10.00;99.90
46562;DHT22;32289;42.688;23.330;2023-05-07T04:11:41;10.00;99.90
46562;DHT22;32289;42.688;23.330;2023-05-07T04:15:22;10.10;99.90
46562;DHT22;32289;42.688;23.330;2023-05-07T04:19:03;10.10;99.90
46562;DHT22;32289;42.688;23.330;2023-05-07T04:22:44;10.20;99.90
46562;DHT22;32289;42.688;23.330;2023-05-07T04:26:24;10.30;99.90
46562;DHT22;32289;42.688;23.330;2023-05-07T04:30:06;10.30;99.90
46562;DHT22;32289;42.688;23.330;2023-05-07T04:33:46;10.40;99.90
46562;DHT22;32289;42.688;23.330;2023-05-07T04:37:27;10.40;99.90
46562;DHT22;32289;42.688;23.330;2023-05-07T04:41:08;10.50;99.90
46562;DHT22;32289;42.688;23.330;2023-05-07T04:44:53;10.50;99.90
46562;DHT22;32289;42.688;23.330;2023-05-07T04:48:33;10.70;99.90
46562;DHT22;32289;42.688;23.330;2023-05-07T04:52:14;11.00;99.90
46562;DHT22;32289;42.688;23.330;2023-05-07T04:55:56;11.00;99.90
46562;DHT22;32289;42.688;23.330;2023-05-07T04:59:37;12.50;99.90
46562;DHT22;32289;42.688;23.330;2023-05-07T05:03:18;14.60;99.90
46562;DHT22;32289;42.688;23.330;2023-05-07T05:06:59;16.30;99.90
46562;DHT22;32289;42.688;23.330;2023-05-07T05:10:40;17.00;92.00
46562;DHT22;32289;42.688;23.330;2023-05-07T05:14:21;17.70;87.40
46562;DHT22;32289;42.688;23.330;2023-05-07T05:18:02;17.00;87.70
46562;DHT22;32289;42.688;23.330;2023-05-07T05:21:43;16.80;88.10
46562;DHT22;32289;42.688;23.330;2023-05-07T05:25:23;17.10;86.70
46562;DHT22;32289;42.688;23.330;2023-05-07T05:29:04;17.70;83.80
46562;DHT22;32289;42.688;23.330;2023-05-07T05:32:45;18.30;80.60
46562;DHT22;32289;42.688;23.330;2023-05-07T05:36:26;19.20;75.30
46562;DHT22;32289;42.688;23.330;2023-05-07T05:40:07;20.30;74.90
46562;DHT22;32289;42.688;23.330;2023-05-07T05:43:48;22.20;66.20
46562;DHT22;32289;42.688;23.330;2023-05-07T05:47:29;21.20;67.00
46562;DHT22;32289;42.688;23.330;2023-05-07T05:51:10;20.40;69.50
46562;DHT22;32289;42.688;23.330;2023-05-07T05:54:50;21.70;69.30
46562;DHT22;32289;42.688;23.330;2023-05-07T05:58:31;21.80;68.80
46562;DHT22;32289;42.688;23.330;2023-05-07T06:02:12;21.60;69.40
46562;DHT22;32289;42.688;23.330;2023-05-07T06:05:52;21.10;66.50
46562;DHT22;32289;42.688;23.330;2023-05-07T06:09:33;21.40;67.40
46562;DHT22;32289;42.688;23.330;2023-05-07T06:13:14;24.40;60.30
46562;DHT22;32289;42.688;23.330;2023-05-07T06:16:55;21.20;67.40
46562;DHT22;32289;42.688;23.330;2023-05-07T06:20:35;21.70;68.00
46562;DHT22;32289;42.688;23.330;2023-05-07T06:24:16;20.10;69.40
46562;DHT22;32289;42.688;23.330;2023-05-07T06:27:57;23.20;63.80
46562;DHT22;32289;42.688;23.330;2023-05-07T06:31:37;23.50;62.70
46562;DHT22;32289;42.688;23.330;2023-05-07T06:35:18;22.70;61.90
46562;DHT22;32289;42.688;23.330;2023-05-07T06:38:59;22.50;62.10
46562;DHT22;32289;42.688;23.330;2023-05-07T06:42:40;24.30;61.30
46562;DHT22;32289;42.688;23.330;2023-05-07T06:46:20;23.30;59.10
46562;DHT22;32289;42.688;23.330;2023-05-07T06:50:01;24.10;60.00
46562;DHT22;32289;42.688;23.330;2023-05-07T06:53:42;23.60;61.60
46562;DHT22;32289;42.688;23.330;2023-05-07T06:57:23;21.10;63.10
46562;DHT22;32289;42.688;23.330;2023-05-07T07:01:04;24.10;60.40
46562;DHT22;32289;42.688;23.330;2023-05-07T07:04:45;23.90;60.30
46562;DHT22;32289;42.688;23.330;2023-05-07T07:08:25;23.50;60.40
46562;DHT22;32289;42.688;23.330;2023-05-07T07:12:06;22.20;59.80
46562;DHT22;32289;42.688;23.330;2023-05-07T07:15:47;23.70;59.40
46562;DHT22;32289;42.688;23.330;2023-05-07T07:19:27;23.10;58.80
46562;DHT22;32289;42.688;23.330;2023-05-07T07:23:08;23.50;59.80
46562;DHT22;32289;42.688;23.330;2023-05-07T07:26:49;24.00;57.30
46562;DHT22;32289;42.688;23.330;2023-05-07T07:30:30;25.10;58.00
46562;DHT22;32289;42.688;23.330;2023-05-07T07:34:10;24.40;58.10
46562;DHT22;32289;42.688;23.330;2023-05-07T07:37:51;23.90;55.70
46562;DHT22;32289;42.688;23.330;2023-05-07T07:41:32;27.50;53.40
46562;DHT22;32289;42.688;23.330;2023-05-07T07:45:12;25.60;55.00
46562;DHT22;32289;42.688;23.330;2023-05-07T07:48:53;24.70;55.20
46562;DHT22;32289;42.688;23.330;2023-05-07T07:52:34;24.50;56.90
46562;DHT22;32289;42.688;23.330;2023-05-07T07:56:15;24.20;57.30
46562;DHT22;32289;42.688;23.330;2023-05-07T07:59:56;23.60;57.40
46562;DHT22;32289;42.688;23.330;2023-05-07T08:03:36;25.10;54.80
46562;DHT22;32289;42.688;23.330;2023-05-07T08:07:18;23.50;59.40
46562;DHT22;32289;42.688;23.330;2023-05-07T08:11:00;25.10;56.90
46562;DHT22;32289;42.688;23.330;2023-05-07T08:14:41;24.80;56.40
46562;DHT22;32289;42.688;23.330;2023-05-07T08:18:22;24.70;55.80
46562;DHT22;32289;42.688;23.330;2023-05-07T08:22:05;25.30;54.20
46562;DHT22;32289;42.688;23.330;2023-05-07T08:25:47;25.80;51.00
46562;DHT22;32289;42.688;23.330;2023-05-07T08:29:27;26.80;52.40
46562;DHT22;32289;42.688;23.330;2023-05-07T08:33:11;25.80;50.60
46562;DHT22;32289;42.688;23.330;2023-05-07T08:36:52;25.50;51.80
46562;DHT22;32289;42.688;23.330;2023-05-07T08:40:37;26.30;50.70
46562;DHT22;32289;42.688;23.330;2023-05-07T08:44:20;26.60;50.90
46562;DHT22;32289;42.688;23.330;2023-05-07T08:48:08;25.90;51.80
46562;DHT22;32289;42.688;23.330;2023-05-07T08:51:49;27.10;48.10
46562;DHT22;32289;42.688;23.330;2023-05-07T08:55:30;26.40;50.70
46562;DHT22;32289;42.688;23.330;2023-05-07T08:59:11;28.00;49.40
46562;DHT22;32289;42.688;23.330;2023-05-07T09:02:53;29.70;46.30
46562;DHT22;32289;42.688;23.330;2023-05-07T09:06:34;30.50;44.40
46562;DHT22;32289;42.688;23.330;2023-05-07T09:10:15;28.50;45.80
46562;DHT22;32289;42.688;23.330;2023-05-07T09:13:58;28.60;45.40
46562;DHT22;32289;42.688;23.330;2023-05-07T09:17:41;26.40;47.80
46562;DHT22;32289;42.688;23.330;2023-05-07T09:21:23;26.90;50.10
46562;DHT22;32289;42.688;23.330;2023-05-07T09:25:05;26.70;48.90
46562;DHT22;32289;42.688;23.330;2023-05-07T09:28:46;25.90;49.90
46562;DHT22;32289;42.688;23.330;2023-05-07T09:32:27;27.30;48.40
46562;DHT22;32289;42.688;23.330;2023-05-07T09:36:09;27.10;47.60
46562;DHT22;32289;42.688;23.330;2023-05-07T09:39:50;26.10;49.00
46562;DHT22;32289;42.688;23.330;2023-05-07T09:43:33;27.80;47.10
46562;DHT22;32289;42.688;23.330;2023-05-07T09:47:19;26.90;46.10
46562;DHT22;32289;42.688;23.330;2023-05-07T09:51:02;25.30;47.30
46562;DHT22;32289;42.688;23.330;2023-05-07T09:54:43;26.10;47.70
46562;DHT22;32289;42.688;23.330;2023-05-07T09:58:26;25.60;47.10
46562;DHT22;32289;42.688;23.330;2023-05-07T10:02:07;25.70;47.70
46562;DHT22;32289;42.688;23.330;2023-05-07T10:05:50;24.00;48.50
46562;DHT22;32289;42.688;23.330;2023-05-07T10:09:32;22.90;50.40
46562;DHT22;32289;42.688;23.330;2023-05-07T10:13:13;25.30;48.60
46562;DHT22;32289;42.688;23.330;2023-05-07T10:16:53;25.00;47.40
46562;DHT22;32289;42.688;23.330;2023-05-07T10:20:36;26.00;44.50
46562;DHT22;32289;42.688;23.330;2023-05-07T10:24:21;25.70;45.90
46562;DHT22;32289;42.688;23.330;2023-05-07T10:28:07;25.70;45.60
46562;DHT22;32289;42.688;23.330;2023-05-07T10:36:00;24.40;47.20
46562;DHT22;32289;42.688;23.330;2023-05-07T10:39:41;24.40;48.20
46562;DHT22;32289;42.688;23.330;2023-05-07T10:43:23;25.60;45.90
46562;DHT22;32289;42.688;23.330;2023-05-07T10:50:49;26.90;44.70
46562;DHT22;32289;42.688;23.330;2023-05-07T11:06:41;26.50;44.60
46562;DHT22;32289;42.688;23.330;2023-05-07T11:10:22;26.20;44.40
46562;DHT22;32289;42.688;23.330;2023-05-07T11:14:03;25.70;45.50
46562;DHT22;32289;42.688;23.330;2023-05-07T11:17:59;25.90;45.90
46562;DHT22;32289;42.688;23.330;2023-05-07T11:21:41;25.90;45.70
46562;DHT22;32289;42.688;23.330;2023-05-07T11:25:22;26.00;44.70
46562;DHT22;32289;42.688;23.330;2023-05-07T11:29:17;27.50;44.50
46562;DHT22;32289;42.688;23.330;2023-05-07T11:32:58;27.00;44.70
46562;DHT22;32289;42.688;23.330;2023-05-07T11:36:42;27.60;45.80
46562;DHT22;32289;42.688;23.330;2023-05-07T11:40:24;27.30;43.10
46562;DHT22;32289;42.688;23.330;2023-05-07T11:44:05;27.00;43.10
46562;DHT22;32289;42.688;23.330;2023-05-07T11:47:45;26.40;43.70
46562;DHT22;32289;42.688;23.330;2023-05-07T11:51:26;25.70;44.80
46562;DHT22;32289;42.688;23.330;2023-05-07T11:55:07;24.80;45.10
46562;DHT22;32289;42.688;23.330;2023-05-07T11:58:48;24.80;45.80
46562;DHT22;32289;42.688;23.330;2023-05-07T12:02:29;24.90;45.10
46562;DHT22;32289;42.688;23.330;2023-05-07T12:06:12;25.10;44.80
46562;DHT22;32289;42.688;23.330;2023-05-07T12:09:53;25.40;44.60
46562;DHT22;32289;42.688;23.330;2023-05-07T12:13:34;25.30;45.10
46562;DHT22;32289;42.688;23.330;2023-05-07T12:17:15;25.00;44.80
46562;DHT22;32289;42.688;23.330;2023-05-07T12:20:57;25.10;45.20
46562;DHT22;32289;42.688;23.330;2023-05-07T12:24:49;25.70;44.20
46562;DHT22;32289;42.688;23.330;2023-05-07T12:28:30;25.40;44.10
46562;DHT22;32289;42.688;23.330;2023-05-07T12:32:18;25.20;44.30
46562;DHT22;32289;42.688;23.330;2023-05-07T12:36:04;24.70;45.40
46562;DHT22;32289;42.688;23.330;2023-05-07T12:39:49;25.20;43.00
46562;DHT22;32289;42.688;23.330;2023-05-07T12:43:30;24.80;43.20
46562;DHT22;32289;42.688;23.330;2023-05-07T12:47:11;24.10;43.70
46562;DHT22;32289;42.688;23.330;2023-05-07T12:50:54;23.90;44.40
46562;DHT22;32289;42.688;23.330;2023-05-07T12:54:37;24.00;43.60
46562;DHT22;32289;42.688;23.330;2023-05-07T12:58:19;24.40;44.00
46562;DHT22;32289;42.688;23.330;2023-05-07T13:02:00;24.30;44.30
46562;DHT22;32289;42.688;23.330;2023-05-07T13:05:40;24.50;44.80
46562;DHT22;32289;42.688;23.330;2023-05-07T13:09:21;24.20;45.00
46562;DHT22;32289;42.688;23.330;2023-05-07T13:13:02;24.00;44.90
46562;DHT22;32289;42.688;23.330;2023-05-07T13:16:43;24.00;45.50
46562;DHT22;32289;42.688;23.330;2023-05-07T13:20:24;23.70;46.10
46562;DHT22;32289;42.688;23.330;2023-05-07T13:24:05;23.70;46.20
46562;DHT22;32289;42.688;23.330;2023-05-07T13:27:46;23.70;46.30
46562;DHT22;32289;42.688;23.330;2023-05-07T13:31:26;24.40;46.50
46562;DHT22;32289;42.688;23.330;2023-05-07T13:35:07;24.50;45.70
46562;DHT22;32289;42.688;23.330;2023-05-07T13:38:48;24.20;45.70
46562;DHT22;32289;42.688;23.330;2023-05-07T13:42:29;24.10;45.90
46562;DHT22;32289;42.688;23.330;2023-05-07T13:46:09;23.90;46.20
46562;DHT22;32289;42.688;23.330;2023-05-07T13:49:50;23.70;46.20
46562;DHT22;32289;42.688;23.330;2023-05-07T13:53:31;23.70;47.40
46562;DHT22;32289;42.688;23.330;2023-05-07T13:57:11;24.20;46.40
46562;DHT22;32289;42.688;23.330;2023-05-07T14:00:52;24.00;46.80
46562;DHT22;32289;42.688;23.330;2023-05-07T14:04:33;23.80;47.40
46562;DHT22;32289;42.688;23.330;2023-05-07T14:08:14;24.00;46.80
46562;DHT22;32289;42.688;23.330;2023-05-07T14:11:54;23.70;47.00
46562;DHT22;32289;42.688;23.330;2023-05-07T14:15:35;24.10;46.90
46562;DHT22;32289;42.688;23.330;2023-05-07T14:19:17;23.80;48.40
46562;DHT22;32289;42.688;23.330;2023-05-07T14:22:57;23.70;48.20
46562;DHT22;32289;42.688;23.330;2023-05-07T14:26:38;23.50;47.40
46562;DHT22;32289;42.688;23.330;2023-05-07T14:30:19;23.40;47.70
46562;DHT22;32289;42.688;23.330;2023-05-07T14:34:00;23.20;47.70
46562;DHT22;32289;42.688;23.330;2023-05-07T14:37:41;23.30;47.60
46562;DHT22;32289;42.688;23.330;2023-05-07T14:41:22;23.60;48.30
46562;DHT22;32289;42.688;23.330;2023-05-07T14:45:03;23.90;48.00
46562;DHT22;32289;42.688;23.330;2023-05-07T14:48:46;23.90;48.20
46562;DHT22;32289;42.688;23.330;2023-05-07T14:52:27;23.80;47.90
46562;DHT22;32289;42.688;23.330;2023-05-07T14:56:08;23.90;48.20
46562;DHT22;32289;42.688;23.330;2023-05-07T14:59:49;23.70;47.80
46562;DHT22;32289;42.688;23.330;2023-05-07T15:03:30;23.40;47.90
46562;DHT22;32289;42.688;23.330;2023-05-07T15:07:11;23.60;48.50
46562;DHT22;32289;42.688;23.330;2023-05-07T15:10:52;23.50;48.60
46562;DHT22;32289;42.688;23.330;2023-05-07T15:14:33;23.30;48.40
46562;DHT22;32289;42.688;23.330;2023-05-07T15:18:14;23.50;49.00
46562;DHT22;32289;42.688;23.330;2023-05-07T15:21:59;23.70;49.20
46562;DHT22;32289;42.688;23.330;2023-05-07T15:25:42;23.70;48.60
46562;DHT22;32289;42.688;23.330;2023-05-07T15:29:23;23.30;48.20
46562;DHT22;32289;42.688;23.330;2023-05-07T15:33:05;23.50;48.90
46562;DHT22;32289;42.688;23.330;2023-05-07T15:36:46;23.40;48.80
46562;DHT22;32289;42.688;23.330;2023-05-07T15:40:26;23.30;49.90
46562;DHT22;32289;42.688;23.330;2023-05-07T15:44:07;23.40;48.90
46562;DHT22;32289;42.688;23.330;2023-05-07T15:47:48;23.40;48.90
46562;DHT22;32289;42.688;23.330;2023-05-07T15:51:29;23.30;48.90
46562;DHT22;32289;42.688;23.330;2023-05-07T15:55:11;23.30;49.50
46562;DHT22;32289;42.688;23.330;2023-05-07T15:58:51;23.20;48.90
46562;DHT22;32289;42.688;23.330;2023-05-07T16:02:33;22.90;48.20
46562;DHT22;32289;42.688;23.330;2023-05-07T16:06:13;22.80;48.50
46562;DHT22;32289;42.688;23.330;2023-05-07T16:09:54;22.80;49.20
46562;DHT22;32289;42.688;23.330;2023-05-07T16:13:35;22.70;49.30
46562;DHT22;32289;42.688;23.330;2023-05-07T16:17:18;22.70;49.80
46562;DHT22;32289;42.688;23.330;2023-05-07T16:20:59;22.50;50.60
46562;DHT22;32289;42.688;23.330;2023-05-07T16:24:40;22.30;51.30
46562;DHT22;32289;42.688;23.330;2023-05-07T16:28:21;22.30;51.50
46562;DHT22;32289;42.688;23.330;2023-05-07T16:32:02;22.20;52.30
46562;DHT22;32289;42.688;23.330;2023-05-07T16:35:43;22.10;53.30
46562;DHT22;32289;42.688;23.330;2023-05-07T16:39:26;21.90;55.70
46562;DHT22;32289;42.688;23.330;2023-05-07T16:43:07;21.60;57.50
46562;DHT22;32289;42.688;23.330;2023-05-07T16:46:48;21.40;57.80
46562;DHT22;32289;42.688;23.330;2023-05-07T16:50:29;21.20;59.00
46562;DHT22;32289;42.688;23.330;2023-05-07T16:54:09;21.10;59.30
46562;DHT22;32289;42.688;23.330;2023-05-07T16:57:50;21.00;60.00
46562;DHT22;32289;42.688;23.330;2023-05-07T17:01:31;20.90;60.40
46562;DHT22;32289;42.688;23.330;2023-05-07T17:05:12;20.70;60.60
46562;DHT22;32289;42.688;23.330;2023-05-07T17:08:52;20.60;61.00
46562;DHT22;32289;42.688;23.330;2023-05-07T17:12:33;20.50;61.60
46562;DHT22;32289;42.688;23.330;2023-05-07T17:16:15;20.40;62.00
46562;DHT22;32289;42.688;23.330;2023-05-07T17:19:55;20.40;61.60
46562;DHT22;32289;42.688;23.330;2023-05-07T17:23:36;20.30;62.00
46562;DHT22;32289;42.688;23.330;2023-05-07T17:27:17;20.20;62.00
46562;DHT22;32289;42.688;23.330;2023-05-07T17:30:57;20.10;62.70
46562;DHT22;32289;42.688;23.330;2023-05-07T17:34:40;19.90;63.30
46562;DHT22;32289;42.688;23.330;2023-05-07T17:38:21;19.90;63.90
46562;DHT22;32289;42.688;23.330;2023-05-07T17:42:02;19.80;64.30
46562;DHT22;32289;42.688;23.330;2023-05-07T17:45:42;19.60;65.00
46562;DHT22;32289;42.688;23.330;2023-05-07T17:49:23;19.50;65.70
46562;DHT22;32289;42.688;23.330;2023-05-07T17:53:04;19.40;66.10
46562;DHT22;32289;42.688;23.330;2023-05-07T17:56:45;19.30;66.60
46562;DHT22;32289;42.688;23.330;2023-05-07T18:00:26;19.20;66.70
46562;DHT22;32289;42.688;23.330;2023-05-07T18:04:07;19.10;67.20
46562;DHT22;32289;42.688;23.330;2023-05-07T18:07:48;19.00;67.50
46562;DHT22;32289;42.688;23.330;2023-05-07T18:11:29;18.90;68.10
46562;DHT22;32289;42.688;23.330;2023-05-07T18:15:11;18.70;68.50
46562;DHT22;32289;42.688;23.330;2023-05-07T18:18:53;18.60;69.30
46562;DHT22;32289;42.688;23.330;2023-05-07T18:22:34;18.40;69.90
46562;DHT22;32289;42.688;23.330;2023-05-07T18:26:15;18.20;70.40
46562;DHT22;32289;42.688;23.330;2023-05-07T18:29:56;18.20;71.10
46562;DHT22;32289;42.688;23.330;2023-05-07T18:33:37;18.00;71.50
46562;DHT22;32289;42.688;23.330;2023-05-07T18:37:17;18.00;72.10
46562;DHT22;32289;42.688;23.330;2023-05-07T18:41:02;18.00;72.20
46562;DHT22;32289;42.688;23.330;2023-05-07T18:44:44;17.90;72.40
46562;DHT22;32289;42.688;23.330;2023-05-07T18:48:25;17.90;72.80
46562;DHT22;32289;42.688;23.330;2023-05-07T18:52:05;17.70;73.80
46562;DHT22;32289;42.688;23.330;2023-05-07T18:55:50;17.60;74.60
46562;DHT22;32289;42.688;23.330;2023-05-07T18:59:31;17.50;75.20
46562;DHT22;32289;42.688;23.330;2023-05-07T19:03:12;17.50;75.70
46562;DHT22;32289;42.688;23.330;2023-05-07T19:06:54;17.40;76.00
46562;DHT22;32289;42.688;23.330;2023-05-07T19:10:35;17.40;76.80
46562;DHT22;32289;42.688;23.330;2023-05-07T19:14:15;17.30;77.70
46562;DHT22;32289;42.688;23.330;2023-05-07T19:17:56;17.30;78.30
46562;DHT22;32289;42.688;23.330;2023-05-07T19:21:37;17.20;79.20
46562;DHT22;32289;42.688;23.330;2023-05-07T19:25:17;17.10;80.60
46562;DHT22;32289;42.688;23.330;2023-05-07T19:28:58;17.00;82.30
46562;DHT22;32289;42.688;23.330;2023-05-07T19:32:39;17.00;83.70
46562;DHT22;32289;42.688;23.330;2023-05-07T19:36:19;17.00;84.90
46562;DHT22;32289;42.688;23.330;2023-05-07T19:40:00;16.90;86.00
46562;DHT22;32289;42.688;23.330;2023-05-07T19:43:44;16.90;88.00
46562;DHT22;32289;42.688;23.330;2023-05-07T19:47:25;16.80;89.90
46562;DHT22;32289;42.688;23.330;2023-05-07T19:51:06;16.80;91.10
46562;DHT22;32289;42.688;23.330;2023-05-07T19:54:48;16.60;92.60
46562;DHT22;32289;42.688;23.330;2023-05-07T19:58:32;16.40;94.50
46562;DHT22;32289;42.688;23.330;2023-05-07T20:02:13;16.30;95.70
46562;DHT22;32289;42.688;23.330;2023-05-07T20:05:54;16.30;96.60
46562;DHT22;32289;42.688;23.330;2023-05-07T20:09:35;16.20;97.30
46562;DHT22;32289;42.688;23.330;2023-05-07T20:13:16;16.20;98.10
46562;DHT22;32289;42.688;23.330;2023-05-07T20:16:57;16.10;98.50
46562;DHT22;32289;42.688;23.330;2023-05-07T20:20:38;16.10;99.00
46562;DHT22;32289;42.688;23.330;2023-05-07T20:24:18;16.00;99.30
46562;DHT22;32289;42.688;23.330;2023-05-07T20:28:00;16.00;99.50
46562;DHT22;32289;42.688;23.330;2023-05-07T20:31:41;16.00;99.60
46562;DHT22;32289;42.688;23.330;2023-05-07T20:35:22;16.00;99.50
46562;DHT22;32289;42.688;23.330;2023-05-07T20:39:03;15.90;99.50
46562;DHT22;32289;42.688;23.330;2023-05-07T20:42:44;15.90;99.30
46562;DHT22;32289;42.688;23.330;2023-05-07T20:46:24;15.80;99.90
46562;DHT22;32289;42.688;23.330;2023-05-07T20:50:06;15.70;99.80
46562;DHT22;32289;42.688;23.330;2023-05-07T20:53:47;15.70;99.90
46562;DHT22;32289;42.688;23.330;2023-05-07T20:57:28;15.70;99.90
46562;DHT22;32289;42.688;23.330;2023-05-07T21:01:09;15.50;99.90
46562;DHT22;32289;42.688;23.330;2023-05-07T21:04:49;15.50;99.90
46562;DHT22;32289;42.688;23.330;2023-05-07T21:08:33;15.50;99.90
46562;DHT22;32289;42.688;23.330;2023-05-07T21:12:13;15.40;99.90
46562;DHT22;32289;42.688;23.330;2023-05-07T21:15:54;15.30;99.90
46562;DHT22;32289;42.688;23.330;2023-05-07T21:19:35;15.30;99.90
46562;DHT22;32289;42.688;23.330;2023-05-07T21:23:16;15.30;99.90
46562;DHT22;32289;42.688;23.330;2023-05-07T21:26:59;15.20;99.90
46562;DHT22;32289;42.688;23.330;2023-05-07T21:30:40;15.20;99.90
46562;DHT22;32289;42.688;23.330;2023-05-07T21:34:20;15.10;99.90
46562;DHT22;32289;42.688;23.330;2023-05-07T21:38:01;15.00;99.90
46562;DHT22;32289;42.688;23.330;2023-05-07T21:41:42;15.00;99.90
46562;DHT22;32289;42.688;23.330;2023-05-07T21:45:23;15.00;99.90
46562;DHT22;32289;42.688;23.330;2023-05-07T21:49:03;14.90;99.90
46562;DHT22;32289;42.688;23.330;2023-05-07T21:52:44;14.90;99.90
46562;DHT22;32289;42.688;23.330;2023-05-07T21:56:26;14.90;99.90
46562;DHT22;32289;42.688;23.330;2023-05-07T22:00:07;14.90;99.90
46562;DHT22;32289;42.688;23.330;2023-05-07T22:03:48;14.80;99.90
46562;DHT22;32289;42.688;23.330;2023-05-07T22:07:29;14.80;99.90
46562;DHT22;32289;42.688;23.330;2023-05-07T22:11:10;14.70;99.90
46562;DHT22;32289;42.688;23.330;2023-05-07T22:14:50;14.70;99.90
46562;DHT22;32289;42.688;23.330;2023-05-07T22:18:31;14.60;99.90
46562;DHT22;32289;42.688;23.330;2023-05-07T22:22:12;14.60;99.90
46562;DHT22;32289;42.688;23.330;2023-05-07T22:25:53;14.60;99.90
46562;DHT22;32289;42.688;23.330;2023-05-07T22:29:33;14.50;99.90
46562;DHT22;32289;42.688;23.330;2023-05-07T22:33:14;14.40;99.90
46562;DHT22;32289;42.688;23.330;2023-05-07T22:36:55;14.40;99.90
46562;DHT22;32289;42.688;23.330;2023-05-07T22:40:35;14.60;99.90
46562;DHT22;32289;42.688;23.330;2023-05-07T22:44:17;14.50;99.90
46562;DHT22;32289;42.688;23.330;2023-05-07T22:47:58;14.30;99.90
46562;DHT22;32289;42.688;23.330;2023-05-07T22:51:40;14.20;99.90
46562;DHT22;32289;42.688;23.330;2023-05-07T22:55:20;14.10;99.90
46562;DHT22;32289;42.688;23.330;2023-05-07T22:59:01;14.10;99.90
46562;DHT22;32289;42.688;23.330;2023-05-07T23:02:42;14.00;99.90
46562;DHT22;32289;42.688;23.330;2023-05-07T23:06:22;14.00;99.90
46562;DHT22;32289;42.688;23.330;2023-05-07T23:10:04;13.90;99.90
46562;DHT22;32289;42.688;23.330;2023-05-07T23:13:45;13.90;99.90
46562;DHT22;32289;42.688;23.330;2023-05-07T23:17:26;13.90;99.90